Time;durP1;ratioP1;P1;durP2;ratioP2;P2;SDS_P1;SDS_P2;PMS_P1;PMS_P2;Temp;Humidity;BMP_temperature;BMP_pressure;BME280_temperature;BME280_humidity;BME280_pressure;Samples;Min_cycle;Max_cycle;Signal;HPM_P1;HPM_P2
2022/10/22 00:01:37;;;;;;;12.68;10.75;;;16.20;99.90;;;;;;5081338;28;20020;-68
2022/10/22 00:04:03;;;;;;;13.23;10.20;;;16.20;99.90;;;;;;5071298;28;20031;-68
2022/10/22 00:06:29;;;;;;;14.63;10.68;;;16.20;99.90;;;;;;5073939;28;20480;-68
2022/10/22 00:08:55;;;;;;;15.30;10.73;;;16.20;99.90;;;;;;5070580;28;20063;-68
2022/10/22 00:11:20;;;;;;;13.40;10.07;;;16.20;99.90;;;;;;5082610;28;20028;-68
2022/10/22 00:13:46;;;;;;;13.15;10.73;;;16.20;99.90;;;;;;5091596;28;20028;-68
2022/10/22 00:16:12;;;;;;;15.40;11.32;;;16.20;99.90;;;;;;5081212;28;20034;-68
2022/10/22 00:18:39;;;;;;;12.73;10.18;;;16.20;99.90;;;;;;5073913;28;20539;-68
2022/10/22 00:21:06;;;;;;;14.27;10.45;;;16.20;99.90;;;;;;5078549;28;20028;-69
2022/10/22 00:23:32;;;;;;;12.68;10.23;;;16.10;99.90;;;;;;5074719;28;20044;-70
2022/10/22 00:25:57;;;;;;;13.82;10.07;;;16.20;99.90;;;;;;5081213;28;20024;-69
2022/10/22 00:28:23;;;;;;;13.50;10.23;;;16.20;99.90;;;;;;5074428;28;20549;-69
2022/10/22 00:30:56;;;;;;;11.93;9.77;;;16.10;99.90;;;;;;5080108;28;20047;-68
2022/10/22 00:33:21;;;;;;;13.88;10.70;;;16.20;99.90;;;;;;5094800;28;20526;-69
2022/10/22 00:35:47;;;;;;;15.18;10.32;;;16.20;99.90;;;;;;5080182;28;20032;-69
2022/10/22 00:38:12;;;;;;;13.52;10.43;;;16.10;99.90;;;;;;5091195;28;20059;-69
2022/10/22 00:40:38;;;;;;;14.50;10.32;;;16.20;99.90;;;;;;5078470;28;20024;-69
2022/10/22 00:43:05;;;;;;;12.50;9.90;;;16.10;99.90;;;;;;5092688;28;20039;-68
2022/10/22 00:45:30;;;;;;;14.52;10.05;;;16.20;99.90;;;;;;5076673;28;20016;-69
2022/10/22 00:48:03;;;;;;;12.70;9.82;;;16.20;99.90;;;;;;5093577;28;20020;-68
2022/10/22 00:50:38;;;;;;;15.70;10.93;;;16.20;99.90;;;;;;5073070;28;20067;-68
2022/10/22 00:53:09;;;;;;;13.75;10.80;;;16.20;99.90;;;;;;5074197;28;20039;-68
2022/10/22 00:55:35;;;;;;;14.52;10.73;;;16.20;99.90;;;;;;5092277;28;20103;-70
2022/10/22 00:58:01;;;;;;;13.35;9.55;;;16.10;99.90;;;;;;5077658;28;20029;-68
2022/10/22 01:00:27;;;;;;;12.55;10.75;;;16.10;99.90;;;;;;5073120;28;20031;-68
2022/10/22 01:02:54;;;;;;;12.63;9.68;;;16.10;99.90;;;;;;5072594;28;20025;-68
2022/10/22 01:05:20;;;;;;;12.00;10.55;;;16.10;99.90;;;;;;5073074;28;20029;-69
2022/10/22 01:07:50;;;;;;;13.18;10.65;;;16.10;99.90;;;;;;5072534;28;20036;-68
2022/10/22 01:10:45;;;;;;;14.90;10.07;;;16.10;99.90;;;;;;5072490;28;20538;-68
2022/10/22 01:13:37;;;;;;;11.70;9.98;;;16.10;99.90;;;;;;5062010;28;20061;-67
2022/10/22 01:16:13;;;;;;;13.57;10.07;;;16.10;99.90;;;;;;5079921;28;20028;-68
2022/10/22 01:18:59;;;;;;;15.27;11.00;;;16.10;99.90;;;;;;5076307;28;20063;-68
2022/10/22 01:21:35;;;;;;;13.27;11.38;;;16.10;99.90;;;;;;5081849;28;20032;-70
2022/10/22 01:24:06;;;;;;;13.30;10.95;;;16.00;99.90;;;;;;5057676;28;20025;-68
2022/10/22 01:27:10;;;;;;;13.63;10.27;;;16.10;99.90;;;;;;5059640;28;20061;-68
2022/10/22 01:29:44;;;;;;;13.80;10.63;;;16.10;99.90;;;;;;5053486;28;20036;-68
2022/10/22 01:32:17;;;;;;;14.27;10.35;;;16.10;99.90;;;;;;5064886;28;20032;-68
2022/10/22 01:34:45;;;;;;;13.40;10.70;;;16.00;99.90;;;;;;5084925;28;20025;-68
2022/10/22 01:37:13;;;;;;;13.23;9.07;;;16.00;99.90;;;;;;5071925;28;20410;-68
2022/10/22 01:39:41;;;;;;;13.57;10.02;;;16.00;99.90;;;;;;5088749;28;20023;-69
2022/10/22 01:42:06;;;;;;;16.92;11.60;;;16.00;99.90;;;;;;5068377;28;20054;-69
2022/10/22 01:44:35;;;;;;;16.95;12.23;;;16.10;99.90;;;;;;5073046;28;20032;-69
2022/10/22 01:47:17;;;;;;;13.00;10.50;;;16.00;99.90;;;;;;5078309;28;20051;-70
2022/10/22 01:50:08;;;;;;;14.00;9.80;;;16.00;99.90;;;;;;5073374;28;20307;-69
2022/10/22 01:52:57;;;;;;;14.55;10.10;;;16.00;99.90;;;;;;5070181;28;20039;-69
2022/10/22 01:56:00;;;;;;;13.40;9.70;;;16.00;99.90;;;;;;5071236;28;20025;-69
2022/10/22 01:58:38;;;;;;;15.80;10.80;;;15.90;99.90;;;;;;5081389;28;20024;-69
2022/10/22 02:01:17;;;;;;;13.85;10.15;;;15.90;99.90;;;;;;5076817;28;20028;-69
2022/10/22 02:03:54;;;;;;;13.52;9.70;;;15.90;99.90;;;;;;5073087;28;20036;-69
2022/10/22 02:06:23;;;;;;;12.07;10.20;;;15.90;99.90;;;;;;5074357;28;20024;-69
2022/10/22 02:08:51;;;;;;;11.35;9.73;;;15.90;99.90;;;;;;5073088;28;20376;-70
2022/10/22 02:11:17;;;;;;;12.50;9.70;;;15.90;99.90;;;;;;5071843;28;20112;-69
2022/10/22 02:13:51;;;;;;;13.15;9.90;;;15.90;99.90;;;;;;5078546;28;20104;-69
2022/10/22 02:16:20;;;;;;;;;;;16.00;99.90;;;;;;5079888;28;20040;-69
2022/10/22 02:18:50;;;;;;;12.20;9.75;;;16.00;99.90;;;;;;5072876;28;19950;-69
2022/10/22 02:21:16;;;;;;;15.60;9.73;;;15.90;99.90;;;;;;5075415;28;20077;-69
2022/10/22 02:23:43;;;;;;;13.40;9.75;;;15.90;99.90;;;;;;5072716;28;20055;-69
2022/10/22 02:26:17;;;;;;;13.00;10.98;;;15.90;99.90;;;;;;5073246;28;20024;-69
2022/10/22 02:29:01;;;;;;;14.27;10.00;;;15.90;99.90;;;;;;5052856;28;20082;-69
2022/10/22 02:31:30;;;;;;;11.88;9.43;;;15.90;99.90;;;;;;5075159;28;20024;-68
2022/10/22 02:34:00;;;;;;;11.50;9.63;;;15.90;99.90;;;;;;5072240;28;20056;-68
2022/10/22 02:36:26;;;;;;;14.02;9.93;;;15.90;99.90;;;;;;5076411;28;20047;-68
2022/10/22 02:38:52;;;;;;;15.35;10.40;;;15.90;99.90;;;;;;5081455;28;20086;-69
2022/10/22 02:41:19;;;;;;;14.10;10.88;;;15.90;99.90;;;;;;5071037;28;20024;-69
2022/10/22 02:43:52;;;;;;;12.20;10.10;;;15.90;99.90;;;;;;5079412;28;20027;-69
2022/10/22 02:46:17;;;;;;;14.48;9.45;;;15.90;99.90;;;;;;5083091;28;20031;-69
2022/10/22 02:48:43;;;;;;;12.55;9.35;;;15.90;99.90;;;;;;5072289;28;20028;-69
2022/10/22 02:51:09;;;;;;;12.27;9.77;;;15.80;99.90;;;;;;5071406;28;20020;-68
2022/10/22 02:53:34;;;;;;;11.98;9.65;;;15.80;99.90;;;;;;5072036;28;20033;-68
2022/10/22 02:56:00;;;;;;;12.25;9.63;;;15.90;99.90;;;;;;5072209;28;20028;-68
2022/10/22 02:58:25;;;;;;;13.65;9.32;;;15.90;99.90;;;;;;5071343;28;20165;-68
2022/10/22 03:00:51;;;;;;;11.38;9.18;;;15.90;99.90;;;;;;5070713;28;20029;-69
2022/10/22 03:03:16;;;;;;;11.82;10.02;;;15.90;99.90;;;;;;5091913;28;20035;-68
2022/10/22 03:05:42;;;;;;;13.15;9.35;;;15.80;99.90;;;;;;5084319;28;20028;-69
2022/10/22 03:08:08;;;;;;;12.30;9.18;;;15.80;99.90;;;;;;5090473;28;20032;-69
2022/10/22 03:10:33;;;;;;;11.05;9.50;;;15.80;99.90;;;;;;5085349;28;20024;-69
2022/10/22 03:12:59;;;;;;;12.27;9.60;;;15.80;99.90;;;;;;5073304;28;20040;-69
2022/10/22 03:15:25;;;;;;;13.60;10.27;;;15.80;99.90;;;;;;5069738;28;20074;-69
2022/10/22 03:17:50;;;;;;;14.80;10.15;;;15.80;99.90;;;;;;5083145;28;20032;-68
2022/10/22 03:20:16;;;;;;;13.75;9.55;;;15.70;99.90;;;;;;5070763;28;20024;-68
2022/10/22 03:22:42;;;;;;;13.88;10.05;;;15.80;99.90;;;;;;5085657;28;20140;-67
2022/10/22 03:25:12;;;;;;;11.60;9.32;;;15.80;99.90;;;;;;5089187;28;20141;-67
2022/10/22 03:27:40;;;;;;;13.15;9.25;;;15.80;99.90;;;;;;5084721;28;20379;-67
2022/10/22 03:30:07;;;;;;;12.65;9.80;;;15.70;99.90;;;;;;5088908;28;20107;-68
2022/10/22 03:32:32;;;;;;;12.15;10.15;;;15.80;99.90;;;;;;5078030;28;20044;-67
2022/10/22 03:34:59;;;;;;;12.32;9.93;;;15.70;99.90;;;;;;5088648;28;20085;-68
2022/10/22 03:37:26;;;;;;;14.05;9.57;;;15.70;99.90;;;;;;5081978;28;20028;-68
2022/10/22 03:39:53;;;;;;;11.85;8.65;;;15.70;99.90;;;;;;5089721;28;20024;-68
2022/10/22 03:42:19;;;;;;;19.48;9.55;;;15.70;99.90;;;;;;5079417;28;20040;-68
2022/10/22 03:44:45;;;;;;;13.07;10.05;;;15.70;99.90;;;;;;5074999;28;20047;-68
2022/10/22 03:47:10;;;;;;;12.43;9.93;;;15.70;99.90;;;;;;5078902;28;20028;-68
2022/10/22 03:49:36;;;;;;;15.02;9.85;;;15.70;99.90;;;;;;5080265;28;20031;-68
2022/10/22 03:52:07;;;;;;;12.02;9.68;;;15.70;99.90;;;;;;5071762;28;20112;-67
2022/10/22 03:54:34;;;;;;;13.07;10.25;;;15.70;99.90;;;;;;5070793;28;20039;-68
2022/10/22 03:56:59;;;;;;;13.02;10.00;;;15.70;99.90;;;;;;5072813;28;20027;-67
2022/10/22 03:59:25;;;;;;;12.82;9.77;;;15.70;99.90;;;;;;5074390;28;20036;-68
2022/10/22 04:01:50;;;;;;;10.70;9.10;;;15.70;99.90;;;;;;5085384;28;20053;-68
2022/10/22 04:04:16;;;;;;;13.25;9.32;;;15.70;99.90;;;;;;5074709;28;20365;-69
2022/10/22 04:06:41;;;;;;;12.00;9.70;;;15.70;99.90;;;;;;5073870;28;20043;-69
2022/10/22 04:09:07;;;;;;;11.90;9.70;;;15.70;99.90;;;;;;5075000;28;20024;-69
2022/10/22 04:11:33;;;;;;;11.77;10.02;;;15.80;99.90;;;;;;5076834;28;20024;-69
2022/10/22 04:13:58;;;;;;;12.15;9.43;;;15.70;99.90;;;;;;5075903;28;20066;-69
2022/10/22 04:16:29;;;;;;;14.45;10.15;;;15.70;99.90;;;;;;5074115;28;20020;-69
2022/10/22 04:18:56;;;;;;;12.68;9.57;;;15.70;99.90;;;;;;5069160;28;20055;-69
2022/10/22 04:21:22;;;;;;;12.98;9.80;;;15.70;99.90;;;;;;5065720;28;20313;-69
2022/10/22 04:23:50;;;;;;;12.88;9.95;;;15.70;99.90;;;;;;5072989;28;20028;-69
2022/10/22 04:26:17;;;;;;;12.23;9.48;;;15.70;99.90;;;;;;5073685;28;20053;-69
2022/10/22 04:28:43;;;;;;;14.32;10.13;;;15.70;99.90;;;;;;5077803;28;20419;-69
2022/10/22 04:31:18;;;;;;;13.43;9.73;;;15.70;99.90;;;;;;5073829;28;20029;-69
2022/10/22 04:33:45;;;;;;;15.80;10.02;;;15.70;99.90;;;;;;5092929;28;20040;-68
2022/10/22 04:36:16;;;;;;;12.57;9.45;;;15.70;99.90;;;;;;5077669;28;20032;-68
2022/10/22 04:38:43;;;;;;;15.38;9.80;;;15.70;99.90;;;;;;5093187;28;20028;-69
2022/10/22 04:41:18;;;;;;;12.60;9.55;;;15.70;99.90;;;;;;5082193;28;20024;-68
2022/10/22 04:43:44;;;;;;;12.88;9.73;;;15.70;99.90;;;;;;5073656;28;20139;-68
2022/10/22 04:46:10;;;;;;;18.77;11.10;;;15.70;99.90;;;;;;5073256;28;20059;-68
2022/10/22 04:48:38;;;;;;;16.15;9.90;;;15.80;99.90;;;;;;5090503;28;20028;-68
2022/10/22 04:51:05;;;;;;;14.48;10.30;;;15.80;99.90;;;;;;5082025;28;20488;-68
2022/10/22 04:53:32;;;;;;;12.40;9.13;;;15.70;99.90;;;;;;5087308;28;20059;-68
2022/10/22 04:56:19;;;;;;;12.48;9.23;;;15.80;99.90;;;;;;5073635;28;20029;-68
2022/10/22 04:58:50;;;;;;;13.77;9.95;;;15.80;99.90;;;;;;5090394;28;20028;-68
2022/10/22 05:01:19;;;;;;;12.75;10.20;;;15.70;99.90;;;;;;5079370;28;20024;-69
2022/10/22 05:03:46;;;;;;;13.02;9.68;;;15.80;99.90;;;;;;5087644;28;20090;-69
2022/10/22 05:06:12;;;;;;;15.40;10.18;;;15.70;99.90;;;;;;5078002;28;20027;-69
2022/10/22 05:08:38;;;;;;;12.90;9.70;;;15.70;99.90;;;;;;5090648;28;20032;-69
2022/10/22 05:11:34;;;;;;;14.93;10.15;;;15.70;99.90;;;;;;5078496;28;20054;-69
2022/10/22 05:14:01;;;;;;;14.65;10.88;;;15.60;99.90;;;;;;5075405;28;20112;-69
2022/10/22 05:16:28;;;;;;;14.73;11.20;;;15.60;99.90;;;;;;5073364;28;20509;-69
2022/10/22 05:18:54;;;;;;;13.82;10.80;;;15.60;99.90;;;;;;5085096;28;20094;-68
2022/10/22 05:21:21;;;;;;;15.75;11.07;;;15.60;99.90;;;;;;5073392;28;20237;-69
2022/10/22 05:23:48;;;;;;;16.85;10.63;;;15.60;99.90;;;;;;5085281;28;20121;-68
2022/10/22 05:26:17;;;;;;;14.20;10.05;;;15.60;99.90;;;;;;5073934;28;20037;-69
2022/10/22 05:28:43;;;;;;;14.27;11.80;;;15.50;99.90;;;;;;5085443;28;20032;-69
2022/10/22 05:31:12;;;;;;;17.77;11.82;;;15.50;99.90;;;;;;5073082;28;20039;-69
2022/10/22 05:33:38;;;;;;;15.00;11.77;;;15.50;99.90;;;;;;5085415;28;20048;-67
2022/10/22 05:36:05;;;;;;;17.25;11.48;;;15.50;99.90;;;;;;5073124;28;20028;-68
2022/10/22 05:38:32;;;;;;;15.07;11.18;;;15.50;99.90;;;;;;5086697;28;20470;-70
2022/10/22 05:41:12;;;;;;;14.85;11.60;;;15.50;99.90;;;;;;5073221;28;20040;-68
2022/10/22 05:43:39;;;;;;;15.88;10.60;;;15.50;99.90;;;;;;5069912;28;20040;-68
2022/10/22 05:46:11;;;;;;;16.38;11.30;;;15.50;99.90;;;;;;5072872;28;20024;-68
2022/10/22 05:48:37;;;;;;;17.27;11.50;;;15.40;99.90;;;;;;5072370;28;20108;-69
2022/10/22 05:51:05;;;;;;;14.65;11.25;;;15.40;99.90;;;;;;5075353;28;20525;-68
2022/10/22 05:53:36;;;;;;;13.75;10.52;;;15.40;99.90;;;;;;5083515;28;20031;-69
2022/10/22 05:56:04;;;;;;;14.65;10.73;;;15.40;99.90;;;;;;5071299;28;20025;-68
2022/10/22 05:58:29;;;;;;;17.35;10.60;;;15.40;99.90;;;;;;5074410;28;20460;-68
2022/10/22 06:01:01;;;;;;;14.60;10.68;;;15.40;99.90;;;;;;5072397;28;20036;-70
2022/10/22 06:03:27;;;;;;;14.07;10.45;;;15.40;99.90;;;;;;5077552;28;20082;-68
2022/10/22 06:05:53;;;;;;;15.30;10.30;;;15.50;99.90;;;;;;5072575;28;20048;-69
2022/10/22 06:08:19;;;;;;;21.25;13.20;;;15.50;99.90;;;;;;5079311;28;20048;-69
2022/10/22 06:10:45;;;;;;;17.17;11.68;;;15.40;99.90;;;;;;5069276;28;20020;-69
2022/10/22 06:13:10;;;;;;;16.73;11.27;;;15.40;99.90;;;;;;5074520;28;20034;-69
2022/10/22 06:15:36;;;;;;;19.23;13.27;;;15.40;99.90;;;;;;5078363;28;20438;-69
2022/10/22 06:18:01;;;;;;;20.55;13.52;;;15.40;99.90;;;;;;5067215;28;20017;-68
2022/10/22 06:20:27;;;;;;;16.65;11.90;;;15.40;99.90;;;;;;5069584;28;20021;-68
2022/10/22 06:22:53;;;;;;;17.17;12.60;;;15.30;99.90;;;;;;5074791;28;20489;-68
2022/10/22 06:25:18;;;;;;;16.52;12.75;;;15.30;99.90;;;;;;5069378;28;20028;-69
2022/10/22 06:27:49;;;;;;;17.55;12.15;;;15.30;99.90;;;;;;5063577;28;20073;-69
2022/10/22 06:30:14;;;;;;;13.57;9.80;;;15.30;99.90;;;;;;5071456;28;20021;-68
2022/10/22 06:32:40;;;;;;;14.90;11.98;;;15.30;99.90;;;;;;5074747;28;20028;-67
2022/10/22 06:35:06;;;;;;;17.65;13.30;;;15.40;99.90;;;;;;5071766;28;20029;-68
2022/10/22 06:37:33;;;;;;;18.50;12.85;;;15.40;99.90;;;;;;5074483;28;20508;-67
2022/10/22 06:39:58;;;;;;;15.65;11.18;;;15.40;99.90;;;;;;5071530;28;20075;-68
2022/10/22 06:42:27;;;;;;;16.38;11.00;;;15.40;99.90;;;;;;5071314;28;20539;-68
2022/10/22 06:44:52;;;;;;;13.35;10.32;;;15.40;99.90;;;;;;5071233;28;20016;-68
2022/10/22 06:47:18;;;;;;;17.33;12.70;;;15.40;99.90;;;;;;5086890;28;20605;-69
2022/10/22 06:49:45;;;;;;;14.88;11.50;;;15.50;99.90;;;;;;5073513;28;20422;-68
2022/10/22 06:52:11;;;;;;;16.40;10.77;;;15.50;99.90;;;;;;5071494;28;20183;-68
2022/10/22 06:54:37;;;;;;;16.67;11.98;;;15.40;99.90;;;;;;5075345;28;20029;-68
2022/10/22 06:57:03;;;;;;;13.90;10.75;;;15.50;99.90;;;;;;5064021;28;20043;-68
2022/10/22 06:59:29;;;;;;;13.15;10.55;;;15.50;99.90;;;;;;5064397;28;20039;-68
2022/10/22 07:01:54;;;;;;;14.95;11.52;;;15.50;99.90;;;;;;5069577;28;20028;-67
2022/10/22 07:04:20;;;;;;;16.08;11.35;;;15.50;99.90;;;;;;5072487;28;20033;-68
2022/10/22 07:06:45;;;;;;;16.13;12.02;;;15.50;99.90;;;;;;5071542;28;20551;-68
2022/10/22 07:09:11;;;;;;;15.07;11.32;;;15.50;99.90;;;;;;5068988;28;20488;-68
2022/10/22 07:11:44;;;;;;;15.90;11.18;;;15.50;99.90;;;;;;5070134;28;20081;-68
2022/10/22 07:14:10;;;;;;;16.95;12.18;;;15.50;99.90;;;;;;5070003;28;20483;-68
2022/10/22 07:16:36;;;;;;;14.85;11.55;;;15.50;99.90;;;;;;5071648;28;20067;-68
2022/10/22 07:19:03;;;;;;;13.85;10.93;;;15.60;99.90;;;;;;5067912;28;20024;-69
2022/10/22 07:21:30;;;;;;;15.35;11.82;;;15.60;99.90;;;;;;5065992;28;20511;-68
2022/10/22 07:23:56;;;;;;;15.82;10.55;;;15.60;99.90;;;;;;5070184;28;20090;-67
2022/10/22 07:26:24;;;;;;;13.73;10.20;;;15.60;99.90;;;;;;5070659;28;20028;-68
2022/10/22 07:28:50;;;;;;;16.55;11.02;;;15.60;99.90;;;;;;5069425;28;20024;-67
2022/10/22 07:31:16;;;;;;;15.68;10.73;;;15.60;99.90;;;;;;5070354;28;20047;-68
2022/10/22 07:33:42;;;;;;;14.35;11.82;;;15.70;99.90;;;;;;5084415;28;20105;-69
2022/10/22 07:36:16;;;;;;;15.20;9.85;;;15.70;99.90;;;;;;5078437;28;20452;-70
2022/10/22 07:38:43;;;;;;;16.55;11.18;;;15.80;99.90;;;;;;5083540;28;20043;-70
2022/10/22 07:41:09;;;;;;;13.13;11.20;;;15.80;99.90;;;;;;5077782;28;20040;-68
2022/10/22 07:43:34;;;;;;;13.50;10.20;;;15.90;99.90;;;;;;5074280;28;20097;-70
2022/10/22 07:46:01;;;;;;;13.68;10.40;;;15.90;99.90;;;;;;5071202;28;20455;-71
2022/10/22 07:48:27;;;;;;;14.73;10.68;;;16.00;99.90;;;;;;5069789;28;20037;-70
2022/10/22 07:50:53;;;;;;;13.13;10.82;;;16.10;99.90;;;;;;5071086;28;20466;-70
2022/10/22 07:53:20;;;;;;;12.63;10.45;;;16.10;99.90;;;;;;5079253;28;20466;-70
2022/10/22 07:55:49;;;;;;;12.57;9.85;;;16.20;99.90;;;;;;5070311;28;20024;-69
2022/10/22 07:58:16;;;;;;;12.23;9.77;;;16.20;99.90;;;;;;5070162;28;20082;-70
2022/10/22 08:00:42;;;;;;;13.50;9.35;;;16.30;99.90;;;;;;5070786;28;20098;-70
2022/10/22 08:03:10;;;;;;;13.77;9.52;;;16.30;99.90;;;;;;5075945;28;20669;-69
2022/10/22 08:05:38;;;;;;;14.82;10.27;;;16.30;99.90;;;;;;5072909;28;20028;-69
2022/10/22 08:08:05;;;;;;;12.35;9.57;;;16.40;99.90;;;;;;5067114;28;20048;-69
2022/10/22 08:10:31;;;;;;;11.55;8.52;;;16.40;99.90;;;;;;5066316;28;20036;-69
2022/10/22 08:12:57;;;;;;;13.65;8.65;;;16.50;99.90;;;;;;5070585;28;20380;-69
2022/10/22 08:15:24;;;;;;;13.45;9.60;;;16.50;99.90;;;;;;5070180;28;20025;-71
2022/10/22 08:17:51;;;;;;;12.68;9.95;;;16.50;99.90;;;;;;5072905;28;20028;-70
2022/10/22 08:20:17;;;;;;;12.32;9.57;;;16.60;99.90;;;;;;5083153;28;20450;-70
2022/10/22 08:22:42;;;;;;;15.48;10.10;;;16.60;99.90;;;;;;5071862;28;20165;-71
2022/10/22 08:25:08;;;;;;;11.88;9.93;;;16.60;99.90;;;;;;5076625;28;20506;-71
2022/10/22 08:27:34;;;;;;;12.38;10.07;;;16.60;99.90;;;;;;5070019;28;20480;-70
2022/10/22 08:30:01;;;;;;;13.38;10.07;;;16.60;99.90;;;;;;5070743;28;20029;-71
2022/10/22 08:32:26;;;;;;;12.52;8.85;;;16.60;99.90;;;;;;5070084;28;20547;-73
2022/10/22 08:34:52;;;;;;;14.00;9.93;;;16.60;99.90;;;;;;5076540;28;20132;-69
2022/10/22 08:37:17;;;;;;;12.82;9.18;;;16.70;99.90;;;;;;5069563;28;20329;-71
2022/10/22 08:39:44;;;;;;;13.82;9.68;;;16.70;99.90;;;;;;5078353;28;20028;-71
2022/10/22 08:42:25;;;;;;;12.68;9.13;;;16.70;99.90;;;;;;5071337;28;20090;-72
2022/10/22 08:44:53;;;;;;;13.32;9.40;;;16.80;99.90;;;;;;5077866;28;20066;-71
2022/10/22 08:47:39;;;;;;;13.85;9.82;;;16.80;99.90;;;;;;5073712;28;20418;-72
2022/10/22 08:50:08;;;;;;;13.18;9.65;;;16.80;99.90;;;;;;5068120;28;20067;-71
2022/10/22 08:52:35;;;;;;;10.43;8.77;;;16.90;99.90;;;;;;5073794;28;20455;-71
2022/10/22 08:55:02;;;;;;;13.32;9.65;;;16.80;99.90;;;;;;5073204;28;20050;-71
2022/10/22 08:57:45;;;;;;;12.18;9.18;;;16.90;99.90;;;;;;5073018;28;20038;-71
2022/10/22 09:00:14;;;;;;;11.60;8.80;;;16.90;99.90;;;;;;5072352;28;20017;-70
2022/10/22 09:03:10;;;;;;;13.07;9.57;;;17.00;99.90;;;;;;5073061;28;20538;-71
2022/10/22 09:05:50;;;;;;;11.38;9.02;;;17.00;99.90;;;;;;5071374;28;20029;-71
2022/10/22 09:08:18;;;;;;;12.45;9.68;;;17.00;99.90;;;;;;5066800;28;20526;-70
2022/10/22 09:11:05;;;;;;;13.27;9.48;;;17.00;99.90;;;;;;5072768;28;20032;-71
2022/10/22 09:13:31;;;;;;;12.10;9.77;;;17.10;99.90;;;;;;5060741;28;20498;-71
2022/10/22 09:16:12;;;;;;;11.45;9.77;;;17.10;99.90;;;;;;5073141;28;20025;-71
2022/10/22 09:19:25;;;;;;;13.93;9.48;;;17.20;99.90;;;;;;5072693;28;20511;-71
2022/10/22 09:22:19;;;;;;;11.40;9.30;;;17.20;99.90;;;;;;5044507;28;20174;-71
2022/10/22 09:24:47;;;;;;;11.48;8.73;;;17.20;99.90;;;;;;5074626;28;20036;-72
2022/10/22 09:27:20;;;;;;;21.63;10.05;;;17.30;99.90;;;;;;5090551;28;20103;-71
2022/10/22 09:29:47;;;;;;;11.55;9.38;;;17.30;99.90;;;;;;5077686;28;20499;-72
2022/10/22 09:32:14;;;;;;;10.80;9.00;;;17.30;99.90;;;;;;5073025;28;20383;-72
2022/10/22 09:34:42;;;;;;;12.52;8.75;;;17.40;99.90;;;;;;5072827;28;20053;-72
2022/10/22 09:37:09;;;;;;;12.30;9.40;;;17.40;99.90;;;;;;5077694;28;20035;-72
2022/10/22 09:39:44;;;;;;;12.77;9.70;;;17.50;99.90;;;;;;5069173;28;20033;-72
2022/10/22 09:42:14;;;;;;;13.52;10.45;;;17.50;99.90;;;;;;5062331;28;20062;-71
2022/10/22 09:44:41;;;;;;;14.60;10.05;;;17.60;99.90;;;;;;5071970;28;20622;-71
2022/10/22 09:47:31;;;;;;;13.63;9.77;;;17.60;99.90;;;;;;5069934;28;20024;-72
2022/10/22 09:50:19;;;;;;;11.35;8.82;;;17.60;99.90;;;;;;5072940;28;20084;-71
2022/10/22 09:52:54;;;;;;;12.55;10.10;;;17.70;99.90;;;;;;5071398;28;20372;-70
2022/10/22 09:55:24;;;;;;;13.93;9.80;;;17.80;99.90;;;;;;5072871;28;20035;-71
2022/10/22 09:57:58;;;;;;;13.52;10.65;;;17.90;99.90;;;;;;5068315;28;20021;-70
2022/10/22 10:00:25;;;;;;;11.97;9.47;;;17.90;99.90;;;;;;5072736;28;20064;-71
2022/10/22 10:02:59;;;;;;;12.68;9.30;;;18.00;99.90;;;;;;5071768;28;20302;-70
2022/10/22 10:05:32;;;;;;;13.90;9.20;;;18.00;99.90;;;;;;5053286;28;20029;-71
2022/10/22 10:08:07;;;;;;;12.40;9.63;;;18.10;99.90;;;;;;5055425;28;20303;-70
2022/10/22 10:10:56;;;;;;;13.35;10.07;;;18.20;99.90;;;;;;5070503;28;20097;-71
2022/10/22 10:13:44;;;;;;;11.77;9.15;;;18.20;99.90;;;;;;5066824;28;20025;-70
2022/10/22 10:16:28;;;;;;;14.20;10.23;;;18.20;99.90;;;;;;5067915;28;20032;-71
2022/10/22 10:19:23;;;;;;;11.98;9.52;;;18.20;99.90;;;;;;5052870;28;20127;-71
2022/10/22 10:22:01;;;;;;;12.60;10.13;;;18.20;99.90;;;;;;5058663;28;20082;-71
2022/10/22 10:24:32;;;;;;;13.65;9.65;;;18.20;99.90;;;;;;5072535;28;20033;-71
2022/10/22 10:27:24;;;;;;;12.02;9.30;;;18.20;99.90;;;;;;5070602;28;20024;-70
2022/10/22 10:30:04;;;;;;;13.98;9.75;;;18.20;99.90;;;;;;5072572;28;20032;-71
2022/10/22 10:33:01;;;;;;;12.80;9.18;;;18.20;99.90;;;;;;5070537;28;20040;-72
2022/10/22 10:35:37;;;;;;;12.10;9.43;;;18.20;99.90;;;;;;5068482;28;20048;-72
2022/10/22 10:38:23;;;;;;;12.35;9.15;;;18.20;99.90;;;;;;5064937;28;20527;-71
2022/10/22 10:41:02;;;;;;;11.77;9.38;;;18.20;99.90;;;;;;5071838;28;20036;-71
2022/10/22 10:43:52;;;;;;;13.25;9.57;;;18.30;99.90;;;;;;5071077;28;20119;-72
2022/10/22 10:46:42;;;;;;;13.75;10.10;;;18.30;99.90;;;;;;5071998;28;20029;-71
2022/10/22 10:49:24;;;;;;;14.20;9.65;;;18.30;99.90;;;;;;5071598;28;20078;-71
2022/10/22 10:52:09;;;;;;;13.00;9.48;;;18.30;99.90;;;;;;5058787;28;20163;-72
2022/10/22 10:54:44;;;;;;;;;;;18.30;99.90;;;;;;5070980;28;20033;-74
2022/10/22 10:57:28;;;;;;;13.70;8.77;;;18.30;99.90;;;;;;5067487;28;20047;-74
2022/10/22 11:00:03;;;;;;;14.82;10.20;;;18.20;99.90;;;;;;5083882;28;20040;-72
2022/10/22 11:02:48;;;;;;;15.23;10.52;;;18.30;99.90;;;;;;5079333;28;20067;-73
2022/10/22 11:05:33;;;;;;;13.93;10.30;;;18.30;99.90;;;;;;5071520;28;20032;-72
2022/10/22 11:08:14;;;;;;;12.18;8.90;;;18.30;99.90;;;;;;5065643;28;20040;-72
2022/10/22 11:10:46;;;;;;;13.18;9.75;;;18.40;99.90;;;;;;5072252;28;20494;-73
2022/10/22 11:13:23;;;;;;;12.65;9.82;;;18.60;99.90;;;;;;5070423;28;20063;-72
2022/10/22 11:16:24;;;;;;;13.38;10.40;;;18.70;99.90;;;;;;5080256;28;20031;-72
2022/10/22 11:18:54;;;;;;;13.93;10.88;;;18.80;99.90;;;;;;5048801;28;20041;-72
2022/10/22 11:21:23;;;;;;;14.00;10.93;;;18.90;99.90;;;;;;5071325;28;20497;-72
2022/10/22 11:23:56;;;;;;;14.98;11.05;;;19.00;99.90;;;;;;5068160;28;20036;-71
2022/10/22 11:26:53;;;;;;;16.27;11.07;;;19.00;99.90;;;;;;5066074;28;20062;-70
2022/10/22 11:29:29;;;;;;;15.60;11.93;;;19.00;99.90;;;;;;5051781;28;20037;-71
2022/10/22 11:31:55;;;;;;;16.30;11.18;;;19.00;99.90;;;;;;5068161;28;20032;-71
2022/10/22 11:34:30;;;;;;;17.67;12.63;;;19.00;99.90;;;;;;5070282;28;20052;-73
2022/10/22 11:36:57;;;;;;;14.32;11.98;;;19.00;99.90;;;;;;5070858;28;20023;-72
2022/10/22 11:39:42;;;;;;;14.55;11.60;;;19.00;99.90;;;;;;5079954;28;20039;-71
2022/10/22 11:42:20;;;;;;;16.25;11.20;;;19.10;99.90;;;;;;5065971;28;20029;-71
2022/10/22 11:45:04;;;;;;;15.48;13.23;;;19.10;99.90;;;;;;5070910;28;20048;-71
2022/10/22 11:47:50;;;;;;;14.17;11.30;;;19.10;99.90;;;;;;5071501;28;20589;-71
2022/10/22 11:50:37;;;;;;;15.27;10.82;;;19.10;99.90;;;;;;5071163;28;20035;-71
2022/10/22 11:53:11;;;;;;;14.60;11.18;;;19.10;99.90;;;;;;5072131;28;20027;-72
2022/10/22 11:55:50;;;;;;;15.07;11.13;;;19.10;99.90;;;;;;5057793;28;20060;-72
2022/10/22 11:58:27;;;;;;;14.90;11.27;;;19.20;99.90;;;;;;5067755;28;20058;-71
2022/10/22 12:01:14;;;;;;;14.07;10.45;;;19.20;99.90;;;;;;5071173;28;20032;-72
2022/10/22 12:03:53;;;;;;;13.88;10.82;;;19.20;99.90;;;;;;5059023;28;20049;-71
2022/10/22 12:06:24;;;;;;;14.48;11.23;;;19.30;99.90;;;;;;5073547;28;20024;-72
2022/10/22 12:08:52;;;;;;;14.80;10.80;;;19.30;99.90;;;;;;5073979;28;20028;-72
2022/10/22 12:11:38;;;;;;;16.70;11.35;;;19.30;99.90;;;;;;5068930;28;20043;-72
2022/10/22 12:14:28;;;;;;;13.05;9.70;;;19.20;99.90;;;;;;5063148;28;20025;-71
2022/10/22 12:17:04;;;;;;;15.45;10.55;;;19.20;99.90;;;;;;5069498;28;20257;-72
2022/10/22 12:19:34;;;;;;;13.93;9.50;;;19.20;99.90;;;;;;5068615;28;20063;-71
2022/10/22 12:22:06;;;;;;;12.00;8.95;;;19.20;99.90;;;;;;5074289;28;20025;-71
2022/10/22 12:24:36;;;;;;;14.57;8.90;;;19.20;99.90;;;;;;5080758;28;20068;-71
2022/10/22 12:27:02;;;;;;;11.20;7.82;;;19.20;99.90;;;;;;5076130;28;20028;-71
2022/10/22 12:29:31;;;;;;;11.00;8.52;;;19.20;99.90;;;;;;5083884;28;20025;-71
2022/10/22 12:32:02;;;;;;;13.32;7.97;;;19.20;99.90;;;;;;5073981;28;20035;-71
2022/10/22 12:34:28;;;;;;;9.75;7.47;;;19.20;99.90;;;;;;5081342;28;20064;-71
2022/10/22 12:36:54;;;;;;;10.13;7.43;;;19.20;99.90;;;;;;5084752;28;20055;-72
2022/10/22 12:39:25;;;;;;;11.85;7.63;;;19.20;99.90;;;;;;5080502;28;20032;-70
2022/10/22 12:41:53;;;;;;;12.55;6.47;;;19.20;99.90;;;;;;5072510;28;20027;-72
2022/10/22 12:44:19;;;;;;;7.93;6.18;;;19.20;99.90;;;;;;5075984;28;20379;-70
2022/10/22 12:46:47;;;;;;;9.18;5.72;;;19.10;99.90;;;;;;5081551;28;20024;-71
2022/10/22 12:49:20;;;;;;;8.07;5.22;;;19.10;99.90;;;;;;5085403;28;20112;-71
2022/10/22 12:51:47;;;;;;;6.85;5.38;;;19.20;99.90;;;;;;5072583;28;20052;-73
2022/10/22 12:54:25;;;;;;;6.80;4.80;;;19.20;99.90;;;;;;5073810;28;20033;-71